createdAt,value
2023-02-09T00:03:57.203Z,-2.06
2023-02-09T00:08:59.118Z,-2.09
2023-02-09T00:14:00.534Z,-2.09
2023-02-09T00:19:01.998Z,-2.07
2023-02-09T00:24:04.251Z,-2.10
2023-02-09T00:29:06.785Z,-2.08
2023-02-09T00:34:08.840Z,-1.99
2023-02-09T00:39:10.385Z,-1.86
2023-02-09T00:44:12.314Z,-1.73
2023-02-09T00:49:13.770Z,-1.63
2023-02-09T00:54:16.933Z,-1.58
2023-02-09T00:59:20.011Z,-1.52
2023-02-09T01:04:21.650Z,-1.47
2023-02-09T01:09:23.533Z,-1.46
2023-02-09T01:14:25.044Z,-1.54
2023-02-09T01:19:26.797Z,-1.63
2023-02-09T01:24:29.447Z,-1.72
2023-02-09T01:29:30.887Z,-1.83
2023-02-09T01:34:32.515Z,-1.99
2023-02-09T01:39:33.951Z,-2.04
2023-02-09T01:44:35.507Z,-2.14
2023-02-09T01:49:38.128Z,-2.24
2023-02-09T01:54:44.579Z,-2.32
2023-02-09T01:59:51.703Z,-2.33
2023-02-09T02:04:53.770Z,-2.27
2023-02-09T02:09:56.044Z,-2.30
2023-02-09T02:14:57.475Z,-2.39
2023-02-09T02:20:53.225Z,-2.51
2023-02-09T02:26:50.060Z,-2.53
2023-02-09T02:32:17.719Z,-2.41
2023-02-09T02:37:37.179Z,-2.31
2023-02-09T02:42:49.182Z,-2.30
2023-02-09T02:48:15.526Z,-2.33
2023-02-09T02:53:21.596Z,-2.30
2023-02-09T02:58:25.628Z,-2.30
2023-02-09T03:03:33.155Z,-2.35
2023-02-09T03:09:01.471Z,-2.38
2023-02-09T03:14:33.268Z,-2.34
2023-02-09T03:19:48.381Z,-2.42
2023-02-09T03:25:04.182Z,-2.46
2023-02-09T03:30:08.596Z,-2.53
2023-02-09T03:35:12.808Z,-2.60
2023-02-09T03:40:14.309Z,-2.70
2023-02-09T03:45:15.791Z,-2.73
2023-02-09T03:50:17.369Z,-2.60
2023-02-09T03:55:18.776Z,-2.53
2023-02-09T04:00:20.419Z,-2.47
2023-02-09T04:05:22.870Z,-2.42
2023-02-09T04:10:24.465Z,-2.40
2023-02-09T04:15:25.907Z,-2.40
2023-02-09T04:20:27.404Z,-2.45
2023-02-09T04:25:28.822Z,-2.48
2023-02-09T04:30:30.309Z,-2.48
2023-02-09T04:35:31.720Z,-2.47
2023-02-09T04:40:33.146Z,-2.48
2023-02-09T04:45:37.414Z,-2.49
2023-02-09T04:50:38.931Z,-2.55
2023-02-09T04:55:42.322Z,-2.66
2023-02-09T05:00:43.964Z,-2.72
2023-02-09T05:05:45.661Z,-2.74
2023-02-09T05:10:47.373Z,-2.78
2023-02-09T05:15:49.072Z,-2.88
2023-02-09T05:20:50.854Z,-2.95
2023-02-09T05:25:52.370Z,-3.00
2023-02-09T05:30:54.129Z,-3.04
2023-02-09T05:35:55.860Z,-3.09
2023-02-09T05:40:57.361Z,-3.18
2023-02-09T05:45:58.889Z,-3.29
2023-02-09T05:51:00.331Z,-3.35
2023-02-09T05:56:01.726Z,-3.29
2023-02-09T06:01:05.293Z,-3.23
2023-02-09T06:06:07.024Z,-3.21
2023-02-09T06:11:08.479Z,-3.22
2023-02-09T06:16:10.161Z,-3.27
2023-02-09T06:21:12.136Z,-3.28
2023-02-09T06:26:15.860Z,-3.29
2023-02-09T06:31:17.583Z,-3.34
2023-02-09T06:36:19.152Z,-3.33
2023-02-09T06:41:20.604Z,-3.31
2023-02-09T06:46:22.198Z,-3.32
2023-02-09T06:51:24.123Z,-3.29
2023-02-09T06:56:25.859Z,-3.23
2023-02-09T07:01:27.334Z,-3.13
2023-02-09T07:06:28.920Z,-3.07
2023-02-09T07:11:30.546Z,-3.08
2023-02-09T07:16:32.017Z,-3.04
2023-02-09T07:21:33.499Z,-2.93
2023-02-09T07:26:34.926Z,-2.80
2023-02-09T07:31:36.436Z,-2.68
2023-02-09T07:36:38.087Z,-2.53
2023-02-09T07:41:39.759Z,-2.43
2023-02-09T07:46:41.364Z,-2.34
2023-02-09T07:51:43.566Z,-2.26
2023-02-09T07:56:45.000Z,-2.20
2023-02-09T08:01:46.599Z,-2.13
2023-02-09T08:06:48.320Z,-2.06
2023-02-09T08:11:55.732Z,-1.98
2023-02-09T08:17:20.972Z,-1.89
2023-02-09T08:22:24.668Z,-1.83
2023-02-09T08:27:26.692Z,-1.76
2023-02-09T08:32:28.122Z,-1.67
2023-02-09T08:37:29.587Z,-1.59
2023-02-09T08:42:31.063Z,-1.53
2023-02-09T08:47:32.546Z,-1.47
2023-02-09T08:52:33.976Z,-1.35
2023-02-09T08:57:44.058Z,-1.23
2023-02-09T09:02:46.275Z,-1.12
2023-02-09T09:07:48.118Z,-1.03
2023-02-09T09:12:49.593Z,-0.87
2023-02-09T09:17:51.075Z,-0.68
2023-02-09T09:22:52.589Z,-0.51
2023-02-09T09:27:54.091Z,-0.34
2023-02-09T09:32:55.628Z,-0.19
2023-02-09T09:37:58.412Z,-0.05
2023-02-09T09:43:19.015Z,0.10
2023-02-09T09:48:35.019Z,0.23
2023-02-09T09:53:36.888Z,0.36
2023-02-09T09:58:43.711Z,0.49
2023-02-09T10:03:45.220Z,0.62
2023-02-09T10:09:01.199Z,0.77
2023-02-09T10:14:02.817Z,0.83
2023-02-09T10:19:17.175Z,0.89
2023-02-09T10:24:27.040Z,0.97
2023-02-09T10:29:28.639Z,1.05
2023-02-09T10:34:38.943Z,1.13
2023-02-09T10:39:40.711Z,1.22
2023-02-09T10:44:49.548Z,1.31
2023-02-09T10:49:55.048Z,1.42
2023-02-09T10:55:00.658Z,1.49
2023-02-09T11:00:26.594Z,1.54
2023-02-09T11:05:32.123Z,1.65
2023-02-09T11:10:40.325Z,1.73
2023-02-09T11:15:50.398Z,1.82
2023-02-09T11:21:01.102Z,1.90
2023-02-09T11:26:20.427Z,1.98
2023-02-09T11:31:34.072Z,2.11
2023-02-09T11:37:05.435Z,2.22
2023-02-09T11:42:34.538Z,2.30
2023-02-09T11:47:53.475Z,2.39
2023-02-09T11:52:59.331Z,2.47
2023-02-09T11:58:33.374Z,2.56
2023-02-09T12:03:34.821Z,2.64
2023-02-09T12:08:55.073Z,2.70
2023-02-09T12:14:14.188Z,2.76
2023-02-09T12:19:25.970Z,2.84
2023-02-09T12:24:39.151Z,2.90
2023-02-09T12:29:41.590Z,2.94
2023-02-09T12:34:49.427Z,2.99
2023-02-09T12:40:06.016Z,3.07
2023-02-09T12:45:35.117Z,3.10
2023-02-09T12:50:43.581Z,3.13
2023-02-09T12:56:01.559Z,3.18
2023-02-09T13:01:03.686Z,3.21
2023-02-09T13:06:10.067Z,3.23
2023-02-09T13:11:23.391Z,3.24
2023-02-09T13:16:24.823Z,3.26
2023-02-09T13:21:57.589Z,3.34
2023-02-09T13:26:59.593Z,3.41
2023-02-09T13:32:17.990Z,4.28
2023-02-09T13:37:49.002Z,6.19
2023-02-09T13:43:06.747Z,7.72
2023-02-09T13:48:24.573Z,8.14
2023-02-09T13:53:28.264Z,7.74
2023-02-09T13:58:35.293Z,6.87
2023-02-09T14:03:57.517Z,5.93
2023-02-09T14:09:02.407Z,5.23
2023-02-09T14:14:09.291Z,4.77
2023-02-09T14:19:31.041Z,4.40
2023-02-09T14:24:43.813Z,4.11
2023-02-09T14:29:47.715Z,3.92
2023-02-09T14:34:49.758Z,3.78
2023-02-09T14:39:55.524Z,3.64
2023-02-09T14:45:00.194Z,3.56
2023-02-09T14:50:02.955Z,3.46
2023-02-09T14:55:07.846Z,3.41
2023-02-09T15:00:17.009Z,3.33
2023-02-09T15:05:20.001Z,3.23
2023-02-09T15:10:27.367Z,3.15
2023-02-09T15:15:29.025Z,3.08
2023-02-09T15:20:31.406Z,3.00
2023-02-09T15:25:32.931Z,2.91
2023-02-09T15:30:35.000Z,2.85
2023-02-09T15:35:36.463Z,2.73
2023-02-09T15:41:07.919Z,2.66
2023-02-09T15:46:21.957Z,2.54
2023-02-09T15:51:26.046Z,2.42
2023-02-09T15:56:28.130Z,2.29
2023-02-09T16:01:33.827Z,2.15
2023-02-09T16:06:35.663Z,2.02
2023-02-09T16:11:40.510Z,1.91
2023-02-09T16:16:43.985Z,1.79
2023-02-09T16:21:49.673Z,1.70
2023-02-09T16:26:51.386Z,1.58
2023-02-09T16:31:53.014Z,1.50
2023-02-09T16:36:54.451Z,1.44
2023-02-09T16:41:57.246Z,1.38
2023-02-09T16:47:00.519Z,1.31
2023-02-09T16:52:06.280Z,1.26
2023-02-09T16:57:11.623Z,1.18
2023-02-09T17:02:33.748Z,1.08
2023-02-09T17:07:48.765Z,1.00
2023-02-09T17:12:55.339Z,0.92
2023-02-09T17:18:02.242Z,0.89
2023-02-09T17:23:04.494Z,0.87
2023-02-09T17:28:06.007Z,0.84
2023-02-09T17:33:15.942Z,0.80
2023-02-09T17:38:46.753Z,0.77
2023-02-09T17:43:50.526Z,0.73
2023-02-09T17:48:51.957Z,0.70
2023-02-09T17:53:53.374Z,0.68
2023-02-09T17:58:57.033Z,0.64
2023-02-09T18:04:00.870Z,0.60
2023-02-09T18:09:04.798Z,0.59
2023-02-09T18:14:06.514Z,0.56
2023-02-09T18:19:09.250Z,0.55
2023-02-09T18:24:10.864Z,0.53
2023-02-09T18:29:12.362Z,0.49
2023-02-09T18:34:15.517Z,0.47
2023-02-09T18:39:17.190Z,0.42
2023-02-09T18:44:18.647Z,0.38
2023-02-09T18:49:20.470Z,0.34
2023-02-09T18:54:21.947Z,0.32
2023-02-09T18:59:27.938Z,0.29
2023-02-09T19:04:29.366Z,0.35
2023-02-09T19:09:30.800Z,0.41
2023-02-09T19:14:37.416Z,0.44
2023-02-09T19:19:38.963Z,0.46
2023-02-09T19:24:40.462Z,0.44
2023-02-09T19:29:42.307Z,0.37
2023-02-09T19:34:45.794Z,0.30
2023-02-09T19:40:00.257Z,0.24
2023-02-09T19:45:02.086Z,0.22
2023-02-09T19:50:04.238Z,0.24
2023-02-09T19:55:06.203Z,0.25
2023-02-09T20:00:08.470Z,0.27
2023-02-09T20:05:10.057Z,0.28
2023-02-09T20:10:11.647Z,0.25
2023-02-09T20:15:13.114Z,0.16
2023-02-09T20:20:14.731Z,0.13
2023-02-09T20:25:17.455Z,0.11
2023-02-09T20:30:19.004Z,0.12
2023-02-09T20:35:20.497Z,0.13
2023-02-09T20:40:22.729Z,0.13
2023-02-09T20:45:43.254Z,0.12
2023-02-09T20:50:45.334Z,0.10
2023-02-09T20:55:46.938Z,0.01
2023-02-09T21:00:48.881Z,-0.09
2023-02-09T21:05:50.485Z,-0.10
2023-02-09T21:10:58.688Z,-0.11
2023-02-09T21:16:00.311Z,-0.07
2023-02-09T21:21:07.731Z,-0.06
2023-02-09T21:26:11.896Z,-0.10
2023-02-09T21:31:16.402Z,-0.18
2023-02-09T21:36:17.913Z,-0.23
2023-02-09T21:41:40.255Z,-0.25
2023-02-09T21:46:42.346Z,-0.26
2023-02-09T21:51:43.800Z,-0.28
2023-02-09T21:56:45.372Z,-0.30
2023-02-09T22:01:46.809Z,-0.36
2023-02-09T22:06:48.994Z,-0.36
2023-02-09T22:11:50.991Z,-0.33
2023-02-09T22:16:52.466Z,-0.28
2023-02-09T22:21:56.627Z,-0.26
2023-02-09T22:26:58.042Z,-0.28
2023-02-09T22:31:59.447Z,-0.28
2023-02-09T22:37:00.854Z,-0.28
2023-02-09T22:42:02.260Z,-0.29
2023-02-09T22:47:04.039Z,-0.32
2023-02-09T22:52:05.585Z,-0.37
2023-02-09T22:57:07.173Z,-0.40
2023-02-09T23:02:09.634Z,-0.45
2023-02-09T23:07:12.395Z,-0.49
2023-02-09T23:12:13.848Z,-0.50
2023-02-09T23:17:15.310Z,-0.52
2023-02-09T23:22:16.738Z,-0.54
2023-02-09T23:27:19.259Z,-0.56
2023-02-09T23:32:20.694Z,-0.57
2023-02-09T23:37:36.892Z,-0.56
2023-02-09T23:42:39.217Z,-0.57
2023-02-09T23:47:40.664Z,-0.61
2023-02-09T23:52:42.345Z,-0.62
2023-02-09T23:57:43.838Z,-0.64
